Accueil
METAR-TAF:

METAR-TAF

Aéroports :

Base aérienne 105 Évreux-Fauville

Évreux, France

latitude: 49-01N, longitude: 001-13E, altitude: 141 m

Observation

Le bulletin a été fait il y a 38 minutes, à 13:00 UTC
Vent 10 kt de nord-est, variant entre nord/nord-est et est
Température 23°C
Humidité 50%
Pression 1024 hPa
Visibilité 10 km ou plus
Quelques nuages à une hauteur de 4300 ft

METAR: LFOE 251300Z AUTO 05010KT 020V080 9999 FEW043 23/12 Q1024 NOSIG

Heure: 15:38 (13:38 UTC)

Prévision

Le bulletin a été fait il y a 5 heures et 38 minutes, à 08:00 UTC
Prévision valable du 25 à 09 UTC au 26 à 09 UTC
Vent 12 kt de nord-est
Visibilité 10 km ou plus
pas de nuages en-dessous de 1500 mètres et pas de cumulonimbus.

TAF: LFOE 250800Z 2509/2609 04012KT CAVOK

Observations et prévisions météorologiques de plus de 4000 aéroports (messages METAR et TAF).

Les stations disponibles sont représentées par des disques jaunes et rouges sur la carte.

Passer la souris dessus pour voir le nom de la station.

Cliquer dessus pour voir les observations et prévisions météorologiques.

Pour changer de carte: cliquez sur les boutons verts avec une croix noire pour zoomer, sur le bouton vert avec un tiret pour effectuer un zoom arrière, ou sur les flèches vertes pour les cartes adjacentes.


METAR-TAF: